Tiempo atmosférico en la estación meteorológica de Candeleda, Ávila (350 m.)



Fecha
DESCASC
Temp. máxima en grados centígrados (hora)
DESCASC
Temp. mínima en grados centígrados (hora)
DESCASC
Temp. media en grados centígrados
DESCASC
Racha de viento máxima en m/sg (hora)
DESCASC
Velocidad máxima media en intervalos de 10 minutos(hora)
DESCASC
Precipitaciones diarias en mm
DESCASC
Precipitaciones de 00:00 a 06:00 en mm
DESCASC
Precipitaciones de 06:00 a 12:00 en mm
DESCASC
Precipitaciones de 12:00 a 18:00 en mm
DESCASC
Precipitaciones de 18:00 a 24:00 en mm
DESCASC
16-06-2019 31.1 (16:00) 10.5 (06:50) 20.8 5.56 (11:40) 3.06 (18:40) 0 0 0 0 0
15-06-2019 28.3 (18:30) 8.5 (07:10) 18.4 6.39 (18:50) 3.33 (17:10) 0 0 0 0 0
14-06-2019 24.5 (17:10) 9.2 (06:20) 16.8 10.28 (15:00) 6.11 (15:00) 0 0 0 0 0
13-06-2019 29.2 (17:40) 7.5 (00:00) 18.4 7.5 (16:30) 4.17 (19:10) 0 0 0 0 0
12-06-2019 29.1 (20:40) 7.3 (00:00) 18.2 8.06 (16:40) 3.89 (16:40) 0 0 0 0 0
11-06-2019 26.4 (20:00) 12 (00:00) 19.2 12.22 (14:30) 5.83 (12:40) 0 0 0 0 0
10-06-2019 29.1 (19:00) 10.1 (00:00) 19.6 9.44 (00:10) 4.72 (00:30) 0 0 0 0 0
09-06-2019 28 (17:40) 9.4 (00:00) 18.7 11.11 (23:50) 6.11 (20:40) 0 0 0 0 0
08-06-2019 29.7 (16:30) 9.1 (00:00) 19.4 8.61 (11:50) 5 (11:50) 0 0 0 0 0
07-06-2019 25.2 (18:40) 8.7 (00:00) 17 8.89 (00:10) 5 (00:10) 0.2 0.2 0 0 0
06-06-2019 25.1 (18:30) 7.7 (00:00) 16.4 13.61 (23:20) 7.22 (23:30) 0.8 0 0 0 0.8
05-06-2019 24.5 (15:50) 10.6 (00:00) 17.6 14.17 (10:10) 9.72 (10:20) 0 0 0 0 0
04-06-2019 27.4 (17:40) 14.3 (00:00) 20.8 11.11 (17:40) 6.39 (18:00) 0 0 0 0 0
03-06-2019 34.1 (17:10) 17.3 (00:00) 25.7 9.17 (18:20) 5.28 (18:30) 0 0 0 0 0
02-06-2019 35.7 (16:30) 15.5 (00:00) 25.6 7.22 (17:50) 4.72 (17:40) 0 0 0 0 0
01-06-2019 36.3 (18:40) 14.3 (00:00) 25.3 4.72 (22:40) 2.78 (23:00) 0 0 0 0 0
31-05-2019 35.9 (19:10) 13.7 (00:00) 24.8 5.28 (13:50) 2.78 (02:50) 0 0 0 0 0
30-05-2019 34 (18:40) 11.6 (00:00) 22.8 6.94 (11:10) 3.89 (11:10) 0 0 0 0 0
29-05-2019 30.7 (18:40) 10.5 (00:00) 20.6 6.11 (22:50) 3.61 (22:50) 0 0 0 0 0
28-05-2019 32 (17:00) 15.3 (00:00) 23.7 11.67 (18:30) 6.39 (18:40) 0 0 0 0 0
27-05-2019 32.7 (16:40) 14.5 (00:00) 23.6 8.61 (18:40) 5 (17:50) 0 0 0 0 0
26-05-2019 32.8 (20:10) 11.1 (00:00) 21.9 6.39 (00:10) 2.78 (17:20) 0 0 0 0 0
25-05-2019 30.7 (19:50) 9.6 (00:00) 20.2 8.89 (23:59) 3.33 (23:59) 0 0 0 0 0
24-05-2019 30.5 (17:40) 13.2 (00:00) 21.8 9.17 (13:40) 5.28 (13:40) 0 0 0 0 0
23-05-2019 29.5 (17:30) 11.8 (00:00) 20.7 9.72 (15:40) 5.83 (15:50) 0 0 0 0 0
22-05-2019 29.9 (18:00) 10.5 (00:00) 20.2 5.83 (18:50) 3.06 (17:50) 0 0 0 0 0

Gráficas

Temp. máximas Temp. mínimas Temp. medias Precipitaciones Rachas de viento máximas Velocidades máximas media en intervalos de 10 minutos

Datos horarios

Fecha y hora oficial Temperatura (ºC) Velocidad del viento (km/h) Dirección del viento Racha (km/h) Dirección de racha Precipitación (mm) Presión (hPa) Tendencia (hPa) Humedad (%)
2019-06-20 23:00:00 20.4 6 Norte 8 Norte 0 -- -- 52
2019-06-20 22:00:00 22.6 4 Noroeste 15 Sudoeste 0 -- -- 47
2019-06-20 21:00:00 26.3 14 Sudoeste 24 Oeste 0 -- -- 36
2019-06-20 20:00:00 26.8 15 Oeste 30 Sudoeste 0 -- -- 37
2019-06-20 19:00:00 28.6 13 Sudoeste 31 Sudoeste 0 -- -- 35
2019-06-20 18:00:00 28.3 15 Sudoeste 29 Sudoeste 0 -- -- 36
2019-06-20 17:00:00 29.2 13 Sudoeste 34 Sudoeste 0 -- -- 34
2019-06-20 16:00:00 29 15 Sudoeste 29 Oeste 0 -- -- 34
2019-06-20 15:00:00 28.7 17 Sudoeste 35 Sur 0 -- -- 34
2019-06-20 14:00:00 27.9 12 Sudoeste 27 Sudoeste 0 -- -- 39
2019-06-20 13:00:00 26.9 9 Oeste 18 Oeste 0 -- -- 44
2019-06-20 12:00:00 23.4 4 Sudoeste 10 Sudoeste 0 -- -- 53
2019-06-20 11:00:00 22.6 3 Sur 8 Sudeste 0 -- -- 56
2019-06-20 10:00:00 20.8 4 Este 8 Este 0 -- -- 62
2019-06-20 09:00:00 19.4 5 Este 9 Nordeste 0 -- -- 67
2019-06-20 08:00:00 16.4 2 Nordeste 5 Nordeste 0 -- -- 81
2019-06-20 07:00:00 13.7 0 Calma 5 Nordeste 0 -- -- 83
2019-06-20 06:00:00 13.5 0 Calma 5 Nordeste 0 -- -- 86
2019-06-20 05:00:00 15.4 3 Nordeste 9 Nordeste 0 -- -- 75
2019-06-20 04:00:00 14.7 3 Nordeste 8 Este 0 -- -- 80
2019-06-20 03:00:00 16.4 3 Norte 6 Norte 0 -- -- 73
2019-06-20 02:00:00 16.4 0 Calma 6 Oeste 0 -- -- 76
2019-06-20 01:00:00 16.6 2 Este 4 Este 0 -- -- 73
2019-06-20 00:00:00 17.8 2 Norte 6 Nordeste 0 -- -- 70
2019-06-19 23:00:00 18.6 4 Nordeste 5 Nordeste 0 -- -- 68
2019-06-19 22:00:00 21 0 Calma 15 Oeste 0 -- -- 58
2019-06-19 21:00:00 24.6 9 Sudoeste 25 Sudoeste 0 -- -- 46
2019-06-19 20:00:00 25.8 16 Sudoeste 28 Sudoeste 0 -- -- 43
2019-06-19 19:00:00 27 19 Sudoeste 33 Oeste 0 -- -- 39
2019-06-19 18:00:00 27.3 17 Sudoeste 33 Sur 0 -- -- 40
2019-06-19 17:00:00 27.5 17 Sudoeste 30 Sudoeste 0 -- -- 39
2019-06-19 16:00:00 25.3 17 Sudoeste 32 Oeste 0 -- -- 43
2019-06-19 15:00:00 25 18 Sudoeste -- -- -- -- -- 46
2019-06-19 14:00:00 26.2 15 Sudoeste 27 Oeste 0 -- -- 40
2019-06-19 13:00:00 25 13 Sur 23 Sudoeste 0 -- -- 50
2019-06-19 12:00:00 22.1 13 Sudoeste 23 Sudoeste 0 -- -- 62
2019-06-19 11:00:00 19.7 12 Oeste 29 Sudoeste 0 -- -- 73
2019-06-19 10:00:00 19.5 15 Sudoeste 23 Sudoeste 0 -- -- 71
2019-06-19 09:00:00 19.8 4 Sudoeste 9 Sudoeste 0 -- -- 69
2019-06-19 08:00:00 15.6 2 Noroeste 9 Oeste 0 -- -- 82
2019-06-19 07:00:00 16 3 Noroeste 12 Oeste 0 -- -- 78
2019-06-19 06:00:00 15.7 3 Noroeste 8 Oeste 0 -- -- 79
2019-06-19 05:00:00 16.3 7 Oeste 14 Noroeste 0 -- -- 74
2019-06-19 04:00:00 16.5 4 Noroeste 10 Sudoeste 0 -- -- 71
2019-06-19 03:00:00 16.8 5 Oeste 17 Sudoeste 0 -- -- 71
2019-06-19 02:00:00 17.6 8 Oeste 15 Sudoeste 0 -- -- 71
2019-06-19 01:00:00 18.1 8 Oeste 12 Sudoeste 0 -- -- 70
2019-06-19 00:00:00 20 8 Sudoeste 13 Sudoeste 0 -- -- 63
2019-06-18 23:00:00 21.3 8 Oeste 24 Oeste 0 -- -- 57
2019-06-18 22:00:00 21.9 11 Oeste 18 Oeste 0 -- -- 55
2019-06-18 21:00:00 25.1 12 Oeste 28 Oeste 0 -- -- 47
2019-06-18 20:00:00 25.9 15 Oeste 32 Sudoeste 0 -- -- 42
2019-06-18 19:00:00 27.3 15 Oeste 35 Oeste 0 -- -- 39
2019-06-18 18:00:00 27.5 20 Sudoeste 35 Oeste 0 -- -- 40
2019-06-18 17:00:00 27 21 Oeste 40 Sudoeste 0 -- -- 40
2019-06-18 16:00:00 28.6 18 Sudoeste 36 Sudoeste 0 -- -- 33
2019-06-18 15:00:00 28.3 23 Sudoeste 37 Sur 0 -- -- 27
2019-06-18 14:00:00 27.4 13 Sudoeste 27 Oeste 0 -- -- 23
2019-06-18 13:00:00 26.8 13 Oeste 24 Oeste 0 -- -- 24
2019-06-18 12:00:00 25.8 12 Sudoeste 28 Sudoeste 0 -- -- 23
2019-06-18 11:00:00 24.9 10 Sudoeste 18 Oeste 0 -- -- 32
2019-06-18 10:00:00 22 11 Sudoeste 17 Sudoeste 0 -- -- 45
2019-06-18 09:00:00 20.2 4 Oeste 5 Oeste 0 -- -- 44
2019-06-18 08:00:00 17 2 Nordeste 6 Este 0 -- -- 53
2019-06-18 07:00:00 13.6 2 Oeste 5 Oeste 0 -- -- 59
2019-06-18 06:00:00 16.2 2 Oeste 9 Oeste 0 -- -- 47
2019-06-18 05:00:00 17.2 5 Noroeste 8 Oeste 0 -- -- 45
2019-06-18 04:00:00 19.1 3 Noroeste 7 Oeste 0 -- -- 36
2019-06-18 03:00:00 20.3 3 Noroeste 8 Oeste 0 -- -- 38
2019-06-18 02:00:00 20.2 0 Calma 8 Norte 0 -- -- 41
2019-06-18 01:00:00 21.1 4 Sur 8 Sur 0 -- -- 43
2019-06-18 00:00:00 21.9 0 Calma 8 Oeste 0 -- -- 37
2019-06-17 23:00:00 22.6 4 Sudoeste 10 Norte 0 -- -- 34
2019-06-17 22:00:00 25.1 7 Norte 11 Noroeste 0 -- -- 29
2019-06-17 21:00:00 28.5 6 Noroeste 17 Oeste 0 -- -- 24
2019-06-17 20:00:00 31.2 11 Oeste 25 Oeste 0 -- -- 20
2019-06-17 19:00:00 32.5 10 Oeste 26 Oeste 0 -- -- 19
2019-06-17 18:00:00 32.3 15 Sudoeste 27 Oeste 0 -- -- 19
2019-06-17 17:00:00 32.7 8 Sudoeste 16 Sudoeste 0 -- -- 21
2019-06-17 16:00:00 31.6 7 Noroeste 21 Sudoeste 0 -- -- 25
2019-06-17 15:00:00 31.3 5 Oeste 22 Oeste 0 -- -- 25
2019-06-17 14:00:00 30.1 5 Oeste 16 Oeste 0 -- -- 25
2019-06-17 13:00:00 29.1 5 Oeste 14 Oeste 0 -- -- 28
2019-06-17 12:00:00 27.6 3 Nordeste 12 Sudeste 0 -- -- 29
2019-06-17 11:00:00 25.2 6 Sudeste 13 Este 0 -- -- 37
2019-06-17 10:00:00 21.9 6 Este 10 Este 0 -- -- 44
2019-06-17 09:00:00 19.3 5 Este 8 Este 0 -- -- 50
2019-06-17 08:00:00 15.4 4 Este 4 Este 0 -- -- 61
2019-06-17 07:00:00 11.2 2 Este 6 Este 0 -- -- 69
2019-06-17 06:00:00 12.2 4 Este 5 Este 0 -- -- 64
2019-06-17 05:00:00 13.9 0 Calma 6 Nordeste 0 -- -- 55
2019-06-17 04:00:00 13.4 3 Norte 6 Este 0 -- -- 59
2019-06-17 03:00:00 15.6 5 Este 12 Nordeste 0 -- -- 49
2019-06-17 02:00:00 15.7 4 Norte 17 Sudoeste 0 -- -- 52
2019-06-17 01:00:00 17.7 2 Nordeste 7 Norte 0 -- -- 40
2019-06-17 00:00:00 18.3 4 Noroeste 10 Noroeste 0 -- -- 41
2019-06-16 23:00:00 20.7 5 Noroeste 14 Norte 0 -- -- 36
2019-06-16 22:00:00 22.7 7 Norte 10 Norte 0 -- -- 35
2019-06-16 21:00:00 29.4 4 Oeste 13 Oeste 0 -- -- 36
2019-06-16 20:00:00 29.4 7 Noroeste 14 Oeste 0 -- -- 24
2019-06-16 19:00:00 29.2 10 Oeste 18 Oeste 0 -- -- 24
2019-06-16 18:00:00 29.2 9 Oeste 20 Oeste 0 -- -- 25
2019-06-16 17:00:00 30.9 3 Nordeste 18 Sudoeste 0 -- -- 22
2019-06-16 16:00:00 31.1 7 Sudoeste 17 Oeste 0 -- -- 20
2019-06-16 15:00:00 30.5 6 Oeste 14 Sudoeste 0 -- -- 21
2019-06-16 14:00:00 28.9 5 Sudoeste 11 Sudoeste 0 -- -- 23
2019-06-16 13:00:00 28.3 4 Oeste 10 Noroeste 0 -- -- 26
2019-06-16 12:00:00 27 3 Sudoeste 20 Este 0 -- -- 28
2019-06-16 11:00:00 25.2 6 Este 10 Sudeste 0 -- -- 33
2019-06-16 10:00:00 23.2 3 Sudoeste 8 Sudoeste 0 -- -- 40
2019-06-16 09:00:00 20.2 2 Oeste 3 Oeste 0 -- -- 50
2019-06-16 08:00:00 15.3 0 Calma 6 Este 0 -- -- 62
2019-06-16 07:00:00 10.6 5 Este 6 Este 0 -- -- 79
2019-06-16 06:00:00 11.5 2 Sudeste 6 Norte 0 -- -- 71
2019-06-16 05:00:00 13.8 4 Nordeste 11 Nordeste 0 -- -- 61
2019-06-16 04:00:00 11.6 3 Nordeste 6 Sudeste 0 -- -- 73
2019-06-16 03:00:00 13.3 0 Calma 3 Sudeste 0 -- -- 66
2019-06-16 02:00:00 15 0 Calma 6 Este 0 -- -- 61
2019-06-16 01:00:00 16.3 2 Este 11 Norte 0 -- -- 49
2019-06-16 00:00:00 19.5 7 Norte 14 Norte 0 -- -- 41
2019-06-15 23:00:00 19.1 7 Norte 13 Norte 0 -- -- 42
2019-06-15 22:00:00 20.2 6 Norte 10 Noroeste 0 -- -- 40
2019-06-15 21:00:00 25.8 5 Sudoeste 15 Sudoeste 0 -- -- 31
2019-06-15 20:00:00 27.1 7 Sudoeste 19 Sudoeste 0 -- -- 28
2019-06-15 19:00:00 27.2 9 Sudoeste 23 Sur 0 -- -- 31
2019-06-15 18:00:00 26.8 8 Oeste 21 Sudoeste 0 -- -- 33
2019-06-15 17:00:00 26.7 4 Nordeste 18 Sudoeste 0 -- -- 30
2019-06-15 16:00:00 25.9 10 Sur 21 Sur 0 -- -- 33
2019-06-15 15:00:00 25.1 10 Sur 20 Sur 0 -- -- 32
2019-06-15 14:00:00 24 4 Norte 15 Sur 0 -- -- 35
2019-06-15 13:00:00 22.5 8 Sudeste 16 Sudeste 0 -- -- 37
2019-06-15 12:00:00 20.5 6 Nordeste 21 Sudeste 0 -- -- 44
2019-06-15 11:00:00 19.3 6 Nordeste 15 Este 0 -- -- 49
2019-06-15 10:00:00 17.7 6 Este 13 Este 0 -- -- 53
2019-06-15 09:00:00 15.7 6 Este 10 Sudeste 0 -- -- 59
2019-06-15 08:00:00 13.1 3 Nordeste 6 Nordeste 0 -- -- 70
2019-06-15 07:00:00 9.1 4 Este 8 Nordeste 0 -- -- 78
2019-06-15 06:00:00 9.2 3 Norte 10 Este 0 -- -- 82
2019-06-15 05:00:00 9.1 3 Este 8 Este 0 -- -- 82
2019-06-15 04:00:00 10.6 6 Este 9 Este 0 -- -- 74
2019-06-15 03:00:00 11.2 5 Nordeste 12 Nordeste 0 -- -- 73
2019-06-15 02:00:00 11.3 3 Nordeste 9 Sur 0 -- -- 73
2019-06-15 01:00:00 13.5 5 Noroeste 13 Oeste 0 -- -- 60
2019-06-15 00:00:00 15.2 9 Oeste 21 Noroeste 0 -- -- 51
2019-06-14 23:00:00 15.8 4 Oeste 18 Sudoeste 0 -- -- 48
2019-06-14 22:00:00 17.7 11 Sudoeste 26 Sudoeste 0 -- -- 41
2019-06-14 21:00:00 20.2 18 Sudoeste 32 Sudoeste 0 -- -- 36
2019-06-14 20:00:00 21.7 19 Oeste 32 Oeste 0 -- -- 33
2019-06-14 19:00:00 23.1 21 Oeste 35 Oeste 0 -- -- 34
2019-06-14 18:00:00 23.7 18 Sudoeste 32 Sur 0 -- -- 32
2019-06-14 17:00:00 24 15 Sudoeste 33 Sudoeste 0 -- -- 32
2019-06-14 16:00:00 23.6 15 Sudoeste 32 Sudoeste 0 -- -- 28
2019-06-14 15:00:00 23.1 22 Sudoeste 37 Oeste 0 -- -- 31
2019-06-14 14:00:00 22.8 15 Sudoeste 30 Oeste 0 -- -- 35
2019-06-14 13:00:00 22.4 15 Sudoeste 34 Oeste 0 -- -- 35
2019-06-14 12:00:00 21 13 Sudoeste 25 Sudoeste 0 -- -- 33
2019-06-14 11:00:00 20.1 11 Sudoeste 20 Sudoeste 0 -- -- 40
2019-06-14 10:00:00 17.9 10 Sudoeste 16 Sudoeste 0 -- -- 47
2019-06-14 09:00:00 15.3 6 Oeste 10 Oeste 0 -- -- 57
2019-06-14 08:00:00 13.8 0 Calma 4 Norte 0 -- -- 63
2019-06-14 07:00:00 9.7 0 Calma 5 Este 0 -- -- 73
2019-06-14 06:00:00 10.3 0 Calma 8 Sudoeste 0 -- -- 72
2019-06-14 05:00:00 12.8 3 Sudoeste 10 Sudoeste 0 -- -- 59
2019-06-14 04:00:00 13.3 5 Sudoeste 9 Sudoeste 0 -- -- 57
2019-06-14 03:00:00 14.4 3 Sudoeste 13 Sudoeste 0 -- -- 50
2019-06-14 02:00:00 13.6 0 Calma 7 Sudeste 0 -- -- 46
2019-06-14 01:00:00 14.9 0 Calma 8 Este 0 -- -- 47
2019-06-14 00:00:00 15.8 3 Norte 12 Este 0 -- -- 44
2019-06-13 23:00:00 18.8 4 Noroeste 8 Noroeste 0 -- -- 29
2019-06-13 22:00:00 19.9 5 Oeste 9 Noroeste 0 -- -- 31
2019-06-13 21:00:00 25.2 6 Noroeste 14 Oeste 0 -- -- 24
2019-06-13 20:00:00 23.9 12 Oeste 26 Oeste 0 -- -- 24
2019-06-13 19:00:00 28.6 9 Oeste 24 Oeste 0 -- -- 18
2019-06-13 18:00:00 28.3 12 Sudoeste 24 Sur 0 -- -- 18
2019-06-13 17:00:00 27 9 Sudoeste 27 Oeste 0 -- -- 20
2019-06-13 16:00:00 26.6 12 Oeste 26 Oeste 0 -- -- 23
2019-06-13 15:00:00 26.2 11 Sudoeste 23 Oeste 0 -- -- 24
2019-06-13 14:00:00 25.1 13 Oeste 23 Sudoeste 0 -- -- 26
2019-06-13 13:00:00 25.7 6 Oeste 15 Sudoeste 0 -- -- 23
2019-06-13 12:00:00 23.3 5 Sudeste 12 Este 0 -- -- 32
2019-06-13 11:00:00 21.4 5 Este 11 Sudeste 0 -- -- 37
2019-06-13 10:00:00 18.2 8 Este 13 Sudeste 0 -- -- 42
2019-06-13 09:00:00 15.5 6 Este 10 Este 0 -- -- 46
2019-06-13 08:00:00 12.2 4 Este 8 Nordeste 0 -- -- 60
2019-06-13 07:00:00 7.5 4 Este 8 Este 0 -- -- 70
2019-06-13 06:00:00 8.7 3 Nordeste 5 Nordeste 0 -- -- 64
2019-06-13 05:00:00 10.6 3 Norte 5 Norte 0 -- -- 56
2019-06-13 04:00:00 11.1 3 Noroeste 8 Oeste 0 -- -- 51
2019-06-13 03:00:00 11.6 3 Este 6 Este 0 -- -- 48
2019-06-13 02:00:00 12.6 3 Nordeste 12 Noroeste 0 -- -- 50
2019-06-13 01:00:00 14.1 4 Oeste 6 Oeste 0 -- -- 44
2019-06-13 00:00:00 14.7 4 Este 8 Norte 0 -- -- 41
2019-06-12 23:00:00 16.2 0 Calma 9 Norte 0 -- -- 35
2019-06-12 22:00:00 19.5 7 Norte 11 Norte 0 -- -- 29
2019-06-12 21:00:00 25.9 2 Norte 16 Sudoeste 0 -- -- 29
2019-06-12 20:00:00 27.5 7 Oeste 21 Oeste 0 -- -- 20
2019-06-12 19:00:00 27.2 12 Oeste 21 Oeste 0 -- -- 20
2019-06-12 18:00:00 27.6 8 Sudoeste 24 Oeste 0 -- -- 17
2019-06-12 17:00:00 26.8 9 Sudoeste 29 Sudoeste 0 -- -- 19
2019-06-12 16:00:00 26.4 11 Oeste 28 Sudoeste 0 -- -- 18
2019-06-12 15:00:00 25.4 9 Sudoeste 21 Sur 0 -- -- 21
2019-06-12 14:00:00 25 9 Sur 21 Sudoeste 0 -- -- 23
2019-06-12 13:00:00 24.3 5 Este 17 Este 0 -- -- 24
2019-06-12 12:00:00 23.1 4 Nordeste 18 Nordeste 0 -- -- 26
2019-06-12 11:00:00 21.6 4 Nordeste 9 Sudeste 0 -- -- 31
2019-06-12 10:00:00 20 3 Sudeste 8 Este 0 -- -- 33
2019-06-12 09:00:00 16.6 3 Sudeste 7 Este 0 -- -- 42
2019-06-12 08:00:00 12.1 0 Calma 9 Sudeste 0 -- -- 59
2019-06-12 07:00:00 7.6 0 Calma 6 Nordeste 0 -- -- 66
2019-06-12 06:00:00 8.5 3 Nordeste 9 Norte 0 -- -- 62
2019-06-12 05:00:00 10.2 4 Norte 11 Sudeste 0 -- -- 54
2019-06-12 04:00:00 9.9 2 Nordeste 10 Noroeste 0 -- -- 54
2019-06-12 03:00:00 11 5 Noroeste 9 Oeste 0 -- -- 47
2019-06-12 02:00:00 12.8 2 Nordeste 7 Norte 0 -- -- 48
2019-06-12 01:00:00 13.6 6 Norte 9 Norte 0 -- -- 44
2019-06-12 00:00:00 14.7 5 Sudoeste 8 Sur 0 -- -- 41
2019-06-11 23:00:00 16.2 3 Oeste 10 Sudoeste 0 -- -- 40
2019-06-11 22:00:00 16.4 2 Norte 12 Sur 0 -- -- 35
2019-06-11 21:00:00 23.9 6 Sudeste 19 Sudoeste 0 -- -- 20
2019-06-11 20:00:00 26.4 4 Sur 23 Este 0 -- -- 17
2019-06-11 19:00:00 24.3 14 Nordeste 28 Nordeste 0 -- -- 19
2019-06-11 18:00:00 24.3 12 Nordeste 28 Nordeste 0 -- -- 18
2019-06-11 17:00:00 23.8 13 Nordeste 32 Este 0 -- -- 22
2019-06-11 16:00:00 23.2 16 Nordeste 36 Este 0 -- -- 27
2019-06-11 15:00:00 24 18 Norte 44 Norte 0 -- -- 26
2019-06-11 14:00:00 24.1 18 Norte 37 Oeste 0 -- -- 28
2019-06-11 13:00:00 22.2 19 Noroeste 37 Oeste 0 -- -- 31
2019-06-11 12:00:00 23.3 16 Oeste 29 Oeste 0 -- -- 33
2019-06-11 11:00:00 22.5 9 Este 20 Este 0 -- -- 40
2019-06-11 10:00:00 22.2 4 Sudeste 8 Este 0 -- -- 43
2019-06-11 09:00:00 20.2 3 Oeste 8 Noroeste 0 -- -- 45
2019-06-11 08:00:00 15.9 3 Este 13 Este 0 -- -- 57
2019-06-11 07:00:00 13.8 8 Este 13 Este 0 -- -- 58
2019-06-11 06:00:00 12.2 4 Norte 8 Oeste 0 -- -- 59
2019-06-11 05:00:00 13.1 4 Este 10 Oeste 0 -- -- 56
2019-06-11 04:00:00 15.8 0 Calma 16 Sudoeste 0 -- -- 46
2019-06-11 03:00:00 16 7 Sudeste 13 Sudeste 0 -- -- 51
2019-06-11 02:00:00 19.3 12 Noroeste 24 Oeste 0 -- -- 41
2019-06-11 01:00:00 17.1 8 Sur 12 Sur 0 -- -- 45
2019-06-11 00:00:00 19.1 8 Sudeste 19 Noroeste 0 -- -- 32
2019-06-10 23:00:00 22.9 12 Noroeste 30 Oeste 0 -- -- 23
2019-06-10 22:00:00 23.4 14 Noroeste 26 Oeste 0 -- -- 25
2019-06-10 21:00:00 25.3 9 Sudoeste 24 Sudoeste 0 -- -- 32
2019-06-10 20:00:00 27.7 13 Sudoeste 26 Sudoeste 0 -- -- 24
2019-06-10 19:00:00 29.1 9 Sudoeste 25 Sur 0 -- -- 25
2019-06-10 18:00:00 28.4 12 Sudoeste 30 Sudoeste 0 -- -- 28
2019-06-10 17:00:00 28.1 13 Sudoeste 26 Sudoeste 0 -- -- 30
2019-06-10 16:00:00 28.3 7 Sur 20 Sudoeste 0 -- -- 28
2019-06-10 15:00:00 26.8 10 Sudoeste 27 Sudoeste 0 -- -- 30
2019-06-10 14:00:00 25.9 5 Oeste 23 Sudoeste 0 -- -- 33
2019-06-10 13:00:00 24.7 8 Sudoeste 19 Sur 0 -- -- 35
2019-06-10 12:00:00 24.2 7 Sur 15 Sudoeste 0 -- -- 38
2019-06-10 11:00:00 22.2 5 Oeste 12 Sudoeste 0 -- -- 44
2019-06-10 10:00:00 20.3 5 Sudoeste 9 Oeste 0 -- -- 48
2019-06-10 09:00:00 19.3 3 Este 5 Sudeste 0 -- -- 49
2019-06-10 08:00:00 14.5 0 Calma 4 Nordeste 0 -- -- 70
2019-06-10 07:00:00 10.3 4 Nordeste 6 Nordeste 0 -- -- 77
2019-06-10 06:00:00 11.7 4 Norte 8 Noroeste 0 -- -- 68
2019-06-10 05:00:00 11.6 2 Este 8 Nordeste 0 -- -- 70
2019-06-10 04:00:00 12.7 3 Nordeste 8 Nordeste 0 -- -- 65
2019-06-10 03:00:00 14.5 3 Norte 8 Este 0 -- -- 58
2019-06-10 02:00:00 16.3 3 Norte 11 Noroeste 0 -- -- 50
2019-06-10 01:00:00 20.3 8 Noroeste 34 Noroeste 0 -- -- 40
2019-06-10 00:00:00 21.4 19 Noroeste 40 Noroeste 0 -- -- 37
2019-06-09 23:00:00 21.9 14 Noroeste 32 Noroeste 0 -- -- 33
2019-06-09 22:00:00 19.7 6 Oeste 27 Sudoeste 0 -- -- 42
2019-06-09 21:00:00 23.5 16 Sudoeste 34 Sudoeste 0 -- -- 31
2019-06-09 20:00:00 25.9 19 Sudoeste 33 Sudoeste 0 -- -- 28
2019-06-09 19:00:00 26.3 15 Sudoeste 34 Sudoeste 0 -- -- 30
2019-06-09 18:00:00 27.6 17 Sudoeste 32 Sudoeste 0 -- -- 29
2019-06-09 17:00:00 27.3 18 Sur 30 Sur 0 -- -- 31
2019-06-09 16:00:00 26.8 15 Sudoeste 28 Sur 0 -- -- 27
2019-06-09 15:00:00 26.2 12 Sudoeste 27 Sudoeste 0 -- -- 25
2019-06-09 14:00:00 24.8 8 Sudoeste 18 Sudoeste 0 -- -- 19
2019-06-09 13:00:00 24 10 Sudoeste 19 Sur 0 -- -- 27
2019-06-09 12:00:00 21.8 11 Sudoeste 18 Sur 0 -- -- 40
2019-06-09 11:00:00 20.1 8 Sudoeste 18 Sudoeste 0 -- -- 48
2019-06-09 10:00:00 19.5 8 Sur 12 Sur 0 -- -- 51
2019-06-09 09:00:00 18.6 2 Sudeste 5 Nordeste 0 -- -- 54
2019-06-09 08:00:00 13.2 0 Calma 8 Este 0 -- -- 70
2019-06-09 07:00:00 10 2 Este 6 Nordeste 0 -- -- 74
2019-06-09 06:00:00 10.6 0 Calma 3 Norte 0 -- -- 70
2019-06-09 05:00:00 12.5 0 Calma 4 Este 0 -- -- 62
2019-06-09 04:00:00 13.4 2 Nordeste 5 Este 0 -- -- 55
2019-06-09 03:00:00 12.7 3 Nordeste 5 Este 0 -- -- 55
2019-06-09 02:00:00 13.6 2 Nordeste 6 Sur 0 -- -- 58
2019-06-09 01:00:00 17 0 Calma 6 Nordeste 0 -- -- 54
2019-06-09 00:00:00 16.7 4 Sudeste 9 Noroeste 0 -- -- 51
2019-06-08 23:00:00 18.4 6 Noroeste 8 Noroeste 0 -- -- 36
2019-06-08 22:00:00 18.7 4 Noroeste 7 Oeste 0 -- -- 41
2019-06-08 21:00:00 21.2 4 Noroeste 9 Oeste 0 -- -- 46
2019-06-08 20:00:00 24.9 6 Oeste 9 Oeste 0 -- -- 37
2019-06-08 19:00:00 28.2 3 Sudoeste 14 Oeste 0 -- -- 22
2019-06-08 18:00:00 28.8 4 Noroeste 18 Sudoeste 0 -- -- 20
2019-06-08 17:00:00 28.8 6 Oeste 21 Sur 0 -- -- 18
2019-06-08 16:00:00 29.1 6 Oeste 16 Sur 0 -- -- 19
2019-06-08 15:00:00 28.6 9 Sur 21 Sur 0 -- -- 21
2019-06-08 14:00:00 28.2 6 Sudoeste 18 Este 0 -- -- 25
2019-06-08 13:00:00 26.7 4 Nordeste 26 Nordeste 0 -- -- 27
2019-06-08 12:00:00 24.4 14 Este 31 Este 0 -- -- 30
2019-06-08 11:00:00 22.8 4 Oeste 8 Oeste 0 -- -- 35
2019-06-08 10:00:00 19.9 3 Noroeste 8 Oeste 0 -- -- 45
2019-06-08 09:00:00 18.5 0 Calma 7 Nordeste 0 -- -- 47
2019-06-08 08:00:00 12.4 4 Nordeste 13 Norte 0 -- -- 66
2019-06-08 07:00:00 11.9 5 Norte 10 Norte 0 -- -- 60
2019-06-08 06:00:00 10.2 2 Norte 5 Este 0 -- -- 66
2019-06-08 05:00:00 10 3 Este 7 Este 0 -- -- 69
2019-06-08 04:00:00 11 3 Este 10 Este 0 -- -- 65
2019-06-08 03:00:00 11.9 2 Norte 8 Norte 0 -- -- 63
2019-06-08 02:00:00 12.3 0 Calma 5 Sudeste 0 -- -- 64
2019-06-08 01:00:00 12.9 2 Norte 5 Noroeste 0 -- -- 58
2019-06-08 00:00:00 13.4 3 Nordeste 11 Norte 0 -- -- 59
2019-06-07 23:00:00 15.8 6 Norte 13 Norte 0 -- -- 51
2019-06-07 22:00:00 17 2 Noroeste 10 Noroeste 0 -- -- 53
2019-06-07 21:00:00 21.7 6 Sudoeste 14 Oeste 0 -- -- 41
2019-06-07 20:00:00 23.4 8 Sudoeste 16 Sudoeste 0 -- -- 32
2019-06-07 19:00:00 25 6 Sudoeste 15 Sudoeste 0 -- -- 29
2019-06-07 18:00:00 24.2 9 Sudoeste 21 Sudoeste 0 -- -- 32
2019-06-07 17:00:00 23.5 9 Oeste 20 Sudoeste 0 -- -- 32
2019-06-07 16:00:00 23.3 5 Sudoeste 23 Sudoeste 0 -- -- 34
2019-06-07 15:00:00 22.2 7 Sudeste 21 Sudeste 0 -- -- 37
2019-06-07 14:00:00 21.2 5 Sudoeste 18 Sur 0 -- -- 38
2019-06-07 13:00:00 19.7 5 Norte 13 Norte 0 -- -- 44
2019-06-07 12:00:00 18.4 3 Norte 16 Este 0 -- -- 47
2019-06-07 11:00:00 16.5 8 Sudeste 19 Este 0 -- -- 61
2019-06-07 10:00:00 13.8 7 Nordeste 14 Nordeste 0 -- -- 75
2019-06-07 09:00:00 13.1 6 Nordeste 10 Este 0 -- -- 79
2019-06-07 08:00:00 9.6 3 Nordeste 12 Este 0 -- -- 91
2019-06-07 07:00:00 8.9 7 Este 10 Nordeste 0 -- -- 92
2019-06-07 06:00:00 9.4 5 Sudoeste 27 Sudoeste 0 -- -- 88
2019-06-07 05:00:00 9.6 7 Sudoeste 15 Oeste 0 -- -- 91
2019-06-07 04:00:00 11 6 Oeste 17 Sudoeste 0 -- -- 89
2019-06-07 03:00:00 12.2 7 Oeste 30 Sudoeste 0 -- -- 92
2019-06-07 02:00:00 13.4 14 Sudoeste 28 Oeste 0 -- -- 93
2019-06-07 01:00:00 14.2 11 Sudoeste 32 Sudoeste 0.2 -- -- 93
2019-06-07 00:00:00 14 18 Oeste 49 Oeste 0.8 -- -- 91
2019-06-06 23:00:00 17 11 Oeste 46 Sudoeste 0 -- -- 65
2019-06-06 22:00:00 20.2 20 Sudoeste 37 Sudoeste 0 -- -- 46
2019-06-06 21:00:00 21.2 13 Sudoeste 27 Sudoeste 0 -- -- 38
2019-06-06 20:00:00 22.1 13 Sudoeste 32 Sudoeste 0 -- -- 35
2019-06-06 19:00:00 22.9 15 Sudoeste 37 Sudoeste 0 -- -- 34
2019-06-06 18:00:00 24.7 17 Sudoeste 27 Sudoeste 0 -- -- 31
2019-06-06 17:00:00 23.4 12 Oeste 31 Oeste 0 -- -- 30
2019-06-06 16:00:00 22.6 13 Sudoeste 23 Oeste 0 -- -- 30
2019-06-06 15:00:00 21.9 7 Oeste 24 Sudoeste 0 -- -- 33
2019-06-06 14:00:00 21 6 Oeste 25 Oeste 0 -- -- 34
2019-06-06 13:00:00 19.5 10 Oeste 23 Sudoeste 0 -- -- 38
2019-06-06 12:00:00 18.5 10 Sudoeste 17 Sur 0 -- -- 44
2019-06-06 11:00:00 16.6 5 Sudoeste 12 Sudoeste 0 -- -- 46
2019-06-06 10:00:00 14.1 5 Sudoeste 10 Oeste 0 -- -- 56
2019-06-06 09:00:00 15.2 4 Oeste 8 Sudoeste 0 -- -- 53
2019-06-06 08:00:00 12.1 0 Calma 4 Norte 0 -- -- 69
2019-06-06 07:00:00 7.7 0 Calma 4 Norte 0 -- -- 76
2019-06-06 06:00:00 8.5 3 Norte 4 Norte 0 -- -- 73
2019-06-06 05:00:00 8.5 2 Norte 4 Norte 0 -- -- 73
2019-06-06 04:00:00 10 0 Calma 6 Este 0 -- -- 67
2019-06-06 03:00:00 9.6 3 Este 9 Oeste 0 -- -- 74
2019-06-06 02:00:00 11.4 3 Noroeste 10 Oeste 0 -- -- 65
2019-06-06 01:00:00 11 2 Este 6 Noroeste 0 -- -- 66
2019-06-06 00:00:00 13.9 5 Oeste 9 Oeste 0 -- -- 54
2019-06-05 23:00:00 15.1 0 Calma 19 Sudoeste 0 -- -- 51
2019-06-05 22:00:00 17.3 11 Oeste 19 Sudoeste 0 -- -- 42
2019-06-05 21:00:00 19.1 14 Sudoeste 27 Sudoeste 0 -- -- 34
2019-06-05 20:00:00 20.5 14 Sudoeste 29 Sudoeste 0 -- -- 32
2019-06-05 19:00:00 20.4 14 Sudoeste 30 Sudoeste 0 -- -- 35
2019-06-05 18:00:00 21.8 18 Sudoeste 30 Sudoeste 0 -- -- 31
2019-06-05 17:00:00 22.6 14 Sudoeste 35 Sudoeste 0 -- -- 30
2019-06-05 16:00:00 24.5 10 Sudoeste 23 Sudoeste 0 -- -- 28
2019-06-05 15:00:00 22.7 13 Oeste 27 Oeste 0 -- -- 30
2019-06-05 14:00:00 20.6 18 Noroeste 37 Oeste 0 -- -- 31
2019-06-05 13:00:00 20.7 17 Noroeste 42 Noroeste 0 -- -- 34
2019-06-05 12:00:00 19.9 14 Noroeste 33 Oeste 0 -- -- 35
2019-06-05 11:00:00 17.8 24 Oeste 51 Oeste 0 -- -- 39
2019-06-05 10:00:00 17.3 26 Noroeste 48 Oeste 0 -- -- 41
2019-06-05 09:00:00 16.2 29 Oeste 49 Oeste 0 -- -- 42
2019-06-05 08:00:00 13.8 12 Norte 31 Oeste 0 -- -- 56
2019-06-05 07:00:00 11.8 6 Nordeste 15 Noroeste 0 -- -- 68
2019-06-05 06:00:00 12.2 4 Sudeste 10 Sudeste 0 -- -- 70
2019-06-05 05:00:00 12.8 3 Nordeste 12 Nordeste 0 -- -- 65
2019-06-05 04:00:00 13.2 2 Nordeste 8 Sur 0 -- -- 65
2019-06-05 03:00:00 14.1 3 Sudeste 13 Sur 0 -- -- 61
2019-06-05 02:00:00 15.3 11 Sudoeste 20 Sudoeste 0 -- -- 56
2019-06-05 01:00:00 16.8 10 Sudoeste 20 Sur 0 -- -- 56
2019-06-05 00:00:00 17.5 9 Oeste 22 Oeste 0 -- -- 56
2019-06-04 23:00:00 18.6 12 Oeste 24 Sudoeste 0 -- -- 59
2019-06-04 22:00:00 20 12 Sudoeste 32 Sudoeste 0 -- -- 55
2019-06-04 21:00:00 22.5 13 Sudoeste 29 Sudoeste 0 -- -- 50
2019-06-04 20:00:00 24.4 17 Sudoeste 33 Oeste 0 -- -- 45
2019-06-04 19:00:00 24.9 19 Oeste 31 Sudoeste 0 -- -- 41
2019-06-04 18:00:00 25.9 23 Oeste 40 Sudoeste 0 -- -- 38
2019-06-04 17:00:00 26.1 18 Oeste 28 Oeste 0 -- -- 41
2019-06-04 16:00:00 26.6 18 Sudoeste 30 Sudoeste 0 -- -- 42
2019-06-04 15:00:00 25.8 18 Sudoeste 28 Sudoeste 0 -- -- 42
2019-06-04 14:00:00 25.7 10 Sudoeste 22 Sudoeste 0 -- -- 43
2019-06-04 13:00:00 24.4 9 Sudoeste 22 Sudoeste 0 -- -- 51
2019-06-04 12:00:00 23.1 12 Sudoeste 28 Sudoeste 0 -- -- 52
2019-06-04 11:00:00 22.5 14 Sudoeste 24 Sudoeste 0 -- -- 56
2019-06-04 10:00:00 21.4 8 Sudoeste 14 Sudoeste 0 -- -- 62
2019-06-04 09:00:00 20.1 6 Sudoeste 14 Oeste 0 -- -- 66
2019-06-04 08:00:00 19.3 2 Noroeste 5 Oeste 0 -- -- 67
2019-06-04 07:00:00 14.8 0 Calma 8 Oeste 0 -- -- 80
2019-06-04 06:00:00 15.5 6 Oeste 11 Oeste 0 -- -- 78
2019-06-04 05:00:00 16.6 8 Oeste 12 Oeste 0 -- -- 73
2019-06-04 04:00:00 17.8 8 Oeste 15 Sudoeste 0 -- -- 67
2019-06-04 03:00:00 18.9 5 Oeste 8 Oeste 0 -- -- 58
2019-06-04 02:00:00 19.4 2 Oeste 8 Noroeste 0 -- -- 59
2019-06-04 01:00:00 22.3 6 Noroeste 10 Oeste 0 -- -- 45
2019-06-04 00:00:00 20.9 5 Sudoeste 8 Sudoeste 0 -- -- 42
2019-06-03 23:00:00 21.8 10 Oeste 14 Oeste -- -- -- 43
2019-06-03 22:00:00 25.4 10 Oeste 17 Oeste 0 -- -- 30
2019-06-03 21:00:00 28.2 9 Oeste 23 Sudoeste 0 -- -- 30
2019-06-03 20:00:00 31.7 12 Sudoeste 31 Sudoeste 0 -- -- 25
2019-06-03 19:00:00 33.2 17 Sudoeste 33 Sudoeste 0 -- -- 18
2019-06-03 18:00:00 33.5 19 Sudoeste 31 Sudoeste 0 -- -- 21
2019-06-03 17:00:00 33.5 10 Oeste 29 Oeste 0 -- -- 22
2019-06-03 16:00:00 32 19 Oeste 28 Oeste 0 -- -- 20
2019-06-03 15:00:00 32.7 8 Sudoeste 21 Sur 0 -- -- 18
2019-06-03 14:00:00 31 12 Sudoeste 22 Sur 0 -- -- 22
2019-06-03 13:00:00 30.3 6 Sur 14 Sudoeste 0 -- -- 30
2019-06-03 12:00:00 27.2 3 Oeste 8 Oeste 0 -- -- 36
2019-06-03 11:00:00 24.8 0 Calma 9 Sur 0 -- -- 42
2019-06-03 10:00:00 25.9 3 Sur 8 Sur 0 -- -- 37
2019-06-03 09:00:00 21.8 4 Este 9 Este 0 -- -- 50
2019-06-03 08:00:00 18.2 6 Este 9 Este 0 -- -- 60
2019-06-03 07:00:00 17.7 5 Nordeste 8 Nordeste 0 -- -- 61
2019-06-03 06:00:00 17.8 2 Nordeste 5 Norte 0 -- -- 60
2019-06-03 05:00:00 18 0 Calma 4 Nordeste 0 -- -- 63
2019-06-03 04:00:00 18.5 3 Este 4 Nordeste 0 -- -- 61
2019-06-03 03:00:00 19 2 Nordeste 6 Nordeste 0 -- -- 59
2019-06-03 02:00:00 20 2 Oeste 6 Noroeste 0 -- -- 58
2019-06-03 01:00:00 20.5 2 Nordeste 6 Nordeste 0 -- -- 59
2019-06-03 00:00:00 21.7 2 Este 11 Norte 0 -- -- 53
2019-06-02 23:00:00 23.7 5 Norte 9 Norte 0 -- -- 42
2019-06-02 22:00:00 23.6 3 Sudeste 8 Norte 0 -- -- 51
2019-06-02 21:00:00 26.8 3 Norte 7 Noroeste 0 -- -- 52
2019-06-02 20:00:00 29.4 2 Oeste 7 Sudoeste 0 -- -- 55
2019-06-02 19:00:00 33.2 3 Oeste 17 Oeste 0 -- -- 30
2019-06-02 18:00:00 32.4 14 Oeste 26 Oeste 0 -- -- 27
2019-06-02 17:00:00 35.6 5 Oeste 17 Sudoeste 0 -- -- 24
2019-06-02 16:00:00 35.1 5 Oeste 13 Sudoeste 0 -- -- 24
2019-06-02 15:00:00 34.2 4 Oeste 13 Sudoeste 0 -- -- 24
2019-06-02 14:00:00 32.9 6 Sur 11 Sur 0 -- -- 23
2019-06-02 13:00:00 31.7 3 Oeste 9 Sudoeste 0 -- -- 24
2019-06-02 12:00:00 30.5 3 Noroeste 6 Noroeste 0 -- -- 36
2019-06-02 11:00:00 28 3 Oeste 6 Oeste 0 -- -- 37
2019-06-02 10:00:00 27.5 0 Calma 4 Sudeste 0 -- -- 41
2019-06-02 09:00:00 26 0 Calma 5 Sudeste 0 -- -- 43
2019-06-02 08:00:00 19.4 2 Norte 12 Oeste 0 -- -- 61
2019-06-02 07:00:00 16.6 3 Oeste 9 Oeste 0 -- -- 61
2019-06-02 06:00:00 16.3 4 Este 8 Este 0 -- -- 64
2019-06-02 05:00:00 18.2 3 Este 6 Este 0 -- -- 58
2019-06-02 04:00:00 21.5 6 Norte 15 Norte 0 -- -- 46
2019-06-02 03:00:00 18.6 5 Nordeste 10 Este 0 -- -- 56
2019-06-02 02:00:00 19.8 3 Nordeste 11 Noroeste 0 -- -- 53
2019-06-02 01:00:00 21.1 5 Sudeste 14 Sudeste 0 -- -- 53
2019-06-02 00:00:00 24.5 5 Norte 15 Norte 0 -- -- 39
2019-06-01 23:00:00 25.7 10 Norte 17 Norte 0 -- -- 34
2019-06-01 22:00:00 24.7 6 Norte 10 Norte 0 -- -- 39
2019-06-01 21:00:00 29.2 6 Norte 11 Norte 0 -- -- 37
2019-06-01 20:00:00 34.2 4 Oeste 9 Sudoeste 0 -- -- 31
2019-06-01 19:00:00 35 8 Oeste 14 Oeste 0 -- -- 24
2019-06-01 18:00:00 35.1 7 Sudoeste 15 Oeste 0 -- -- 20
2019-06-01 17:00:00 34.9 5 Oeste 12 Sudoeste 0 -- -- 22
2019-06-01 16:00:00 33.9 3 Noroeste 13 Sudoeste 0 -- -- 22
2019-06-01 15:00:00 33.1 7 Sur 13 Sudeste 0 -- -- 24
2019-06-01 14:00:00 32 4 Noroeste 10 Oeste 0 -- -- 29
2019-06-01 13:00:00 30.2 3 Este 11 Sudeste 0 -- -- 30
2019-06-01 12:00:00 29.1 3 Este 13 Nordeste 0 -- -- 30
2019-06-01 11:00:00 26.3 5 Nordeste 12 Nordeste 0 -- -- 35
2019-06-01 10:00:00 25.3 3 Nordeste 8 Este 0 -- -- 37
2019-06-01 09:00:00 22.3 2 Oeste 8 Noroeste 0 -- -- 43
2019-06-01 08:00:00 18.4 3 Oeste 9 Este 0 -- -- 52
2019-06-01 07:00:00 14.3 4 Este 8 Este 0 -- -- 66
2019-06-01 06:00:00 15.2 2 Sudoeste 13 Este 0 -- -- 58
2019-06-01 05:00:00 16.7 4 Este 6 Nordeste 0 -- -- 57
2019-06-01 04:00:00 17.8 4 Nordeste 12 Norte 0 -- -- 54
2019-06-01 03:00:00 19.1 5 Norte 12 Norte 0 -- -- 49
2019-06-01 02:00:00 18.9 6 Sudeste 14 Sudeste 0 -- -- 55
2019-06-01 01:00:00 19.7 3 Este 6 Este 0 -- -- 55
2019-06-01 00:00:00 21.6 3 Este 5 Norte 0 -- -- 49
2019-05-31 23:00:00 23.2 2 Noroeste 10 Norte 0 -- -- 41
2019-05-31 22:00:00 24.8 6 Norte 14 Norte 0 -- -- 42
2019-05-31 21:00:00 29.5 6 Norte 9 Norte 0 -- -- 38
2019-05-31 20:00:00 34.1 4 Oeste 7 Sudoeste 0 -- -- 36
2019-05-31 19:00:00 35 3 Norte 10 Oeste 0 -- -- 22
2019-05-31 18:00:00 34.6 6 Sur 12 Sur 0 -- -- 23
2019-05-31 17:00:00 34.3 5 Sudeste 15 Sudeste 0 -- -- 23
2019-05-31 16:00:00 34 5 Sudeste 17 Este 0 -- -- 25
2019-05-31 15:00:00 33.5 5 Sudoeste 14 Sur 0 -- -- 24
2019-05-31 14:00:00 31.9 6 Este 19 Sur 0 -- -- 26
2019-05-31 13:00:00 31 7 Sudeste 14 Este 0 -- -- 28
2019-05-31 12:00:00 29.4 4 Sudoeste 13 Este 0 -- -- 34
2019-05-31 11:00:00 27.1 5 Nordeste 10 Nordeste 0 -- -- 33
2019-05-31 10:00:00 27.1 0 Calma 6 Sudeste 0 -- -- 31
2019-05-31 09:00:00 23.2 4 Este 8 Este 0 -- -- 46
2019-05-31 08:00:00 19.5 6 Noroeste 10 Noroeste 0 -- -- 48
2019-05-31 07:00:00 15.1 8 Oeste 10 Sudoeste 0 -- -- 55
2019-05-31 06:00:00 15.4 5 Oeste 8 Oeste 0 -- -- 54
2019-05-31 05:00:00 16.3 0 Calma 5 Noroeste 0 -- -- 53
2019-05-31 04:00:00 15.4 0 Calma 11 Oeste 0 -- -- 59
2019-05-31 03:00:00 15.8 7 Oeste 15 Sudeste 0 -- -- 60
2019-05-31 02:00:00 16.9 3 Este 6 Sudeste 0 -- -- 59
2019-05-31 01:00:00 21.7 5 Norte 12 Noroeste 0 -- -- 40
2019-05-31 00:00:00 20.1 2 Este 6 Norte 0 -- -- 50
2019-05-30 23:00:00 22.1 5 Norte 13 Norte 0 -- -- 45
2019-05-30 22:00:00 22.8 4 Noroeste 9 Norte 0 -- -- 43
2019-05-30 21:00:00 28.9 4 Noroeste 9 Oeste 0 -- -- 39
2019-05-30 20:00:00 31.5 6 Sudoeste 12 Oeste 0 -- -- 37
2019-05-30 19:00:00 32.8 6 Oeste 10 Sudoeste 0 -- -- 27
2019-05-30 18:00:00 32.5 7 Sudoeste 15 Sudoeste 0 -- -- 27
2019-05-30 17:00:00 32.7 5 Norte 14 Sudoeste 0 -- -- 27
2019-05-30 16:00:00 31.9 5 Sur 15 Sur 0 -- -- 26
2019-05-30 15:00:00 30.6 4 Sudoeste 14 Norte 0 -- -- 27
2019-05-30 14:00:00 28.8 4 Oeste 13 Sudeste 0 -- -- 29
2019-05-30 13:00:00 28 5 Sudeste 15 Este 0 -- -- 31
2019-05-30 12:00:00 25.4 7 Sudeste 25 Nordeste 0 -- -- 35
2019-05-30 11:00:00 23.1 13 Este 22 Este 0 -- -- 39
2019-05-30 10:00:00 22.8 3 Sudoeste 6 Sudoeste 0 -- -- 38
2019-05-30 09:00:00 21.7 0 Calma 9 Nordeste 0 -- -- 40
2019-05-30 08:00:00 15.6 5 Este 9 Este 0 -- -- 61
2019-05-30 07:00:00 11.6 2 Nordeste 8 Norte 0 -- -- 68
2019-05-30 06:00:00 14.2 3 Norte 5 Norte 0 -- -- 54
2019-05-30 05:00:00 13.9 2 Oeste 8 Noroeste 0 -- -- 53
2019-05-30 04:00:00 15 4 Noroeste 10 Noroeste 0 -- -- 50
2019-05-30 03:00:00 15.9 4 Noroeste 9 Norte 0 -- -- 44
2019-05-30 02:00:00 14.7 9 Sudoeste 19 Sudoeste 0 -- -- 55
2019-05-30 01:00:00 16.6 2 Sudeste 7 Oeste 0 -- -- 45
2019-05-30 00:00:00 20.1 5 Sudeste 15 Norte 0 -- -- 33
2019-05-29 23:00:00 21.1 5 Nordeste 22 Este 0 -- -- 44
2019-05-29 22:00:00 20.7 8 Norte 12 Norte 0 -- -- 53
2019-05-29 21:00:00 26.9 0 Calma 7 Oeste 0 -- -- 47
2019-05-29 20:00:00 29.7 6 Oeste 11 Oeste 0 -- -- 34
2019-05-29 19:00:00 30.2 6 Oeste 10 Oeste 0 -- -- 30
2019-05-29 18:00:00 30.3 6 Sudoeste 12 Oeste 0 -- -- 30
2019-05-29 17:00:00 29.5 3 Norte 14 Sudoeste 0 -- -- 31
2019-05-29 16:00:00 28.5 4 Noroeste 14 Sudoeste 0 -- -- 31
2019-05-29 15:00:00 27 6 Noroeste 17 Oeste 0 -- -- 34
2019-05-29 14:00:00 25.6 5 Sur 14 Oeste 0 -- -- 35
2019-05-29 13:00:00 23.5 4 Sur 18 Sudoeste 0 -- -- 35
2019-05-29 12:00:00 21.7 4 Norte 10 Nordeste 0 -- -- 38
2019-05-29 11:00:00 20.8 4 Norte 9 Sudeste 0 -- -- 38
2019-05-29 10:00:00 19.9 5 Este 10 Este 0 -- -- 43
2019-05-29 09:00:00 17.6 6 Este 11 Este 0 -- -- 45
2019-05-29 08:00:00 15.8 3 Nordeste 8 Nordeste 0 -- -- 51
2019-05-29 07:00:00 11.5 0 Calma 6 Oeste 0 -- -- 67
2019-05-29 06:00:00 12.9 0 Calma 9 Norte 0 -- -- 59
2019-05-29 05:00:00 12.4 0 Calma 5 Noroeste 0 -- -- 64
2019-05-29 04:00:00 14.3 3 Norte 17 Nordeste 0 -- -- 56
2019-05-29 03:00:00 14.8 2 Norte 12 Nordeste 0 -- -- 55
2019-05-29 02:00:00 17.6 8 Nordeste 16 Nordeste 0 -- -- 46
2019-05-29 01:00:00 17.2 3 Nordeste 10 Noroeste 0 -- -- 49
2019-05-29 00:00:00 17.5 2 Sudoeste 11 Oeste 0 -- -- 50
2019-05-28 23:00:00 19.8 3 Noroeste 10 Sudeste 0 -- -- 40
2019-05-28 22:00:00 22.6 5 Sur 18 Noroeste 0 -- -- 33
2019-05-28 21:00:00 27.1 9 Noroeste 21 Oeste 0 -- -- 25
2019-05-28 20:00:00 28.5 18 Noroeste 39 Noroeste 0 -- -- 24
2019-05-28 19:00:00 29.6 16 Oeste 42 Oeste 0 -- -- 23
2019-05-28 18:00:00 30.5 14 Noroeste 31 Oeste 0 -- -- 22
2019-05-28 17:00:00 32 6 Sudoeste 14 Oeste 0 -- -- 24
2019-05-28 16:00:00 30.6 3 Nordeste 14 Sudoeste 0 -- -- 29
2019-05-28 15:00:00 29.6 3 Este 10 Nordeste 0 -- -- 33
2019-05-28 14:00:00 28 4 Norte 12 Sudeste 0 -- -- 35
2019-05-28 13:00:00 27.6 5 Sur 13 Sur 0 -- -- 34
2019-05-28 12:00:00 25.7 4 Nordeste 15 Sudeste 0 -- -- 42
2019-05-28 11:00:00 24.7 4 Nordeste 10 Este 0 -- -- 42
2019-05-28 10:00:00 24.1 3 Este 8 Este 0 -- -- 43
2019-05-28 09:00:00 20.6 4 Nordeste 6 Sudeste 0 -- -- 55
2019-05-28 08:00:00 17.7 2 Este 8 Norte 0 -- -- 63
2019-05-28 07:00:00 15.4 6 Norte 9 Norte 0 -- -- 65
2019-05-28 06:00:00 15.3 4 Noroeste 6 Nordeste 0 -- -- 66
2019-05-28 05:00:00 17.7 4 Nordeste 17 Este 0 -- -- 57
2019-05-28 04:00:00 16.3 0 Calma 6 Nordeste 0 -- -- 62
2019-05-28 03:00:00 18.1 3 Noroeste 5 Noroeste 0 -- -- 55
2019-05-28 02:00:00 18.6 4 Norte 8 Noroeste 0 -- -- 53
2019-05-28 01:00:00 18.5 4 Nordeste 8 Este 0 -- -- 58
2019-05-28 00:00:00 20.5 0 Calma 9 Nordeste 0 -- -- 50
2019-05-27 23:00:00 23.2 5 Sudoeste 9 Sudoeste 0 -- -- 39
2019-05-27 22:00:00 25.6 4 Este 25 Noroeste 0 -- -- 34
2019-05-27 21:00:00 28 14 Noroeste 24 Noroeste 0 -- -- 29
2019-05-27 20:00:00 30.3 12 Noroeste 26 Noroeste 0 -- -- 28
2019-05-27 19:00:00 31.7 11 Noroeste 31 Oeste 0 -- -- 27
2019-05-27 18:00:00 31.4 15 Oeste 30 Oeste 0 -- -- 27
2019-05-27 17:00:00 31.9 12 Oeste 24 Sudoeste 0 -- -- 27
2019-05-27 16:00:00 31 14 Oeste 28 Oeste 0 -- -- 32
2019-05-27 15:00:00 30.5 8 Sur 15 Sur 0 -- -- 32
2019-05-27 14:00:00 28.7 7 Sudoeste 15 Sudoeste 0 -- -- 32
2019-05-27 13:00:00 28.4 5 Oeste 12 Oeste 0 -- -- 33
2019-05-27 12:00:00 28 3 Noroeste 8 Oeste 0 -- -- 33
2019-05-27 11:00:00 26.8 2 Sudoeste 9 Sur 0 -- -- 37
2019-05-27 10:00:00 23.5 4 Sudoeste 6 Sudoeste 0 -- -- 47
2019-05-27 09:00:00 23.1 3 Sur 5 Sur 0 -- -- 48
2019-05-27 08:00:00 17.9 0 Calma 9 Norte 0 -- -- 63
2019-05-27 07:00:00 16 3 Norte 6 Norte 0 -- -- 62
2019-05-27 06:00:00 15.4 2 Este 9 Norte 0 -- -- 69
2019-05-27 05:00:00 15.1 0 Calma 9 Norte 0 -- -- 69
2019-05-27 04:00:00 15 4 Norte 12 Sudoeste 0 -- -- 67
2019-05-27 03:00:00 15.8 4 Norte 12 Noroeste 0 -- -- 65
2019-05-27 02:00:00 18.1 6 Noroeste 13 Sudeste 0 -- -- 53
2019-05-27 01:00:00 17.9 4 Nordeste 13 Sudeste 0 -- -- 55
2019-05-27 00:00:00 19.4 8 Norte 13 Norte 0 -- -- 47
2019-05-26 23:00:00 20.5 0 Calma 9 Sudeste 0 -- -- 48
2019-05-26 22:00:00 20.3 4 Nordeste 12 Noroeste 0 -- -- 57
2019-05-26 21:00:00 29.8 4 Sur 9 Sur 0 -- -- 34
2019-05-26 20:00:00 31.7 2 Oeste 8 Oeste 0 -- -- 32
2019-05-26 19:00:00 31 6 Sur 16 Sur 0 -- -- 29
2019-05-26 18:00:00 30 7 Sudoeste 18 Sur 0 -- -- 31
2019-05-26 17:00:00 30.1 5 Oeste 14 Sur 0 -- -- 32
2019-05-26 16:00:00 29 3 Sudoeste 13 Sudoeste 0 -- -- 31
2019-05-26 15:00:00 27 8 Sudoeste 16 Sur 0 -- -- 36
2019-05-26 14:00:00 25.6 5 Oeste 15 Sudoeste 0 -- -- 38
2019-05-26 13:00:00 24.4 4 Oeste 11 Oeste 0 -- -- 38
2019-05-26 12:00:00 23.2 4 Norte 12 Sur 0 -- -- 42
2019-05-26 11:00:00 21.2 5 Sur 11 Sudoeste 0 -- -- 43
2019-05-26 10:00:00 19.3 6 Sudoeste 13 Sudoeste 0 -- -- 48
2019-05-26 09:00:00 17.5 5 Sudoeste 9 Oeste 0 -- -- 52
2019-05-26 08:00:00 14.4 3 Oeste 8 Noroeste 0 -- -- 66
2019-05-26 07:00:00 11.6 0 Calma 8 Noroeste 0 -- -- 72
2019-05-26 06:00:00 11.6 0 Calma 7 Norte 0 -- -- 72
2019-05-26 05:00:00 12.7 3 Nordeste 9 Noroeste 0 -- -- 66
2019-05-26 04:00:00 16.2 6 Noroeste 12 Oeste 0 -- -- 50
2019-05-26 03:00:00 14.2 9 Oeste 13 Oeste 0 -- -- 59
2019-05-26 02:00:00 17 6 Noroeste 13 Nordeste 0 -- -- 51
2019-05-26 01:00:00 16.3 4 Norte 23 Nordeste 0 -- -- 52
2019-05-26 00:00:00 20.8 12 Este 32 Este 0 -- -- 35
2019-05-25 23:00:00 19.7 7 Nordeste 16 Norte 0 -- -- 39
2019-05-25 22:00:00 19.4 2 Noroeste 12 Norte 0 -- -- 54
2019-05-25 21:00:00 25.4 0 Calma 6 Oeste 0 -- -- 45
2019-05-25 20:00:00 30.2 2 Sudoeste 8 Nordeste 0 -- -- 29
2019-05-25 19:00:00 27.6 7 Este 15 Este 0 -- -- 29
2019-05-25 18:00:00 28.5 5 Sur 12 Sudeste 0 -- -- 31
2019-05-25 17:00:00 27.3 5 Nordeste 20 Este 0 -- -- 28
2019-05-25 16:00:00 27.6 3 Este 15 Este 0 -- -- 29
2019-05-25 15:00:00 26.4 3 Oeste 15 Sudeste 0 -- -- 34
2019-05-25 14:00:00 25.1 4 Nordeste 13 Sur 0 -- -- 34
2019-05-25 13:00:00 23.9 2 Norte 9 Este 0 -- -- 36
2019-05-25 12:00:00 21.7 5 Noroeste 10 Oeste 0 -- -- 43
2019-05-25 11:00:00 21 3 Oeste 9 Oeste 0 -- -- 43
2019-05-25 10:00:00 18.4 6 Oeste 12 Sudoeste 0 -- -- 51
2019-05-25 09:00:00 17.4 4 Sudoeste 8 Noroeste 0 -- -- 54
2019-05-25 08:00:00 13.7 3 Oeste 6 Noroeste 0 -- -- 67
2019-05-25 07:00:00 10.1 2 Noroeste 4 Norte 0 -- -- 74
2019-05-25 06:00:00 11.1 2 Norte 7 Noroeste 0 -- -- 69
2019-05-25 05:00:00 11.4 0 Calma 8 Norte 0 -- -- 68
2019-05-25 04:00:00 11.9 4 Oeste 10 Oeste 0 -- -- 65
2019-05-25 03:00:00 13.1 5 Oeste 11 Oeste 0 -- -- 61
2019-05-25 02:00:00 15 6 Noroeste 13 Oeste 0 -- -- 54
2019-05-25 01:00:00 14.6 4 Oeste 9 Oeste 0 -- -- 55
2019-05-25 00:00:00 15.2 3 Noroeste 14 Nordeste 0 -- -- 54
2019-05-24 23:00:00 18.5 6 Nordeste 19 Nordeste 0 -- -- 43
2019-05-24 22:00:00 20.9 13 Sudeste 23 Sudoeste 0 -- -- 34
2019-05-24 21:00:00 23.9 11 Noroeste 31 Noroeste 0 -- -- 28
2019-05-24 20:00:00 26.8 13 Noroeste 31 Oeste 0 -- -- 25
2019-05-24 19:00:00 28.3 7 Norte 20 Oeste 0 -- -- 25
2019-05-24 18:00:00 29.9 4 Este 22 Oeste 0 -- -- 23
2019-05-24 17:00:00 29 9 Sudoeste 27 Este 0 -- -- 25
2019-05-24 16:00:00 28.8 11 Sudeste 25 Este 0 -- -- 27
2019-05-24 15:00:00 27.6 10 Sudeste 31 Sudeste 0 -- -- 31
2019-05-24 14:00:00 26.4 16 Sudeste 33 Este 0 -- -- 33
2019-05-24 13:00:00 26.5 8 Este 13 Este 0 -- -- 38
2019-05-24 12:00:00 25.7 8 Sur 14 Oeste 0 -- -- 39
2019-05-24 11:00:00 23.6 8 Sudoeste 12 Sudoeste 0 -- -- 48
2019-05-24 10:00:00 23.9 4 Sudeste 10 Sudeste 0 -- -- 45
2019-05-24 09:00:00 18.3 2 Este 9 Este 0 -- -- 71
2019-05-24 08:00:00 14.6 4 Norte 5 Norte 0 -- -- 79
2019-05-24 07:00:00 13.2 3 Nordeste 5 Norte 0 -- -- 83
2019-05-24 06:00:00 14.8 2 Nordeste 5 Nordeste 0 -- -- 74
2019-05-24 05:00:00 14 2 Nordeste 5 Nordeste 0 -- -- 78
2019-05-24 04:00:00 14.9 3 Este 8 Este 0 -- -- 74
2019-05-24 03:00:00 16.5 5 Nordeste 8 Este 0 -- -- 68
2019-05-24 02:00:00 18.5 5 Este 10 Este 0 -- -- 58
2019-05-24 01:00:00 18.7 0 Calma 10 Este 0 -- -- 56
2019-05-24 00:00:00 19.8 5 Oeste 12 Oeste 0 -- -- 51
2019-05-23 23:00:00 21.2 4 Norte 18 Noroeste 0 -- -- 45
2019-05-23 22:00:00 21.2 7 Norte 12 Noroeste 0 -- -- 48
2019-05-23 21:00:00 23.9 3 Norte 9 Sudoeste 0 -- -- 47
2019-05-23 20:00:00 27.4 4 Sudoeste 19 Sudoeste 0 -- -- 33
2019-05-23 19:00:00 28.9 10 Sudoeste 23 Sudoeste 0 -- -- 28
2019-05-23 18:00:00 29.1 12 Sudoeste 30 Oeste 0 -- -- 27
2019-05-23 17:00:00 28.9 14 Oeste 35 Oeste 0 -- -- 28
2019-05-23 16:00:00 28.3 17 Sudoeste 35 Oeste 0 -- -- 32
2019-05-23 15:00:00 28.4 12 Sudoeste 30 Sudoeste 0 -- -- 28
2019-05-23 14:00:00 27.7 9 Sudoeste 19 Sudoeste 0 -- -- 33
2019-05-23 13:00:00 27.2 5 Sudoeste 12 Sudoeste 0 -- -- 42
2019-05-23 12:00:00 25.1 4 Noroeste 9 Este 0 -- -- 44
2019-05-23 11:00:00 22.5 5 Nordeste 12 Este 0 -- -- 53
2019-05-23 10:00:00 20.1 5 Este 8 Este 0 -- -- 64
2019-05-23 09:00:00 16.8 4 Este 8 Este 0 -- -- 71
2019-05-23 08:00:00 13.8 4 Este 5 Este 0 -- -- 76
2019-05-23 07:00:00 12.6 2 Oeste 6 Sudeste 0 -- -- 75
2019-05-23 06:00:00 12.5 0 Calma 4 Norte 0 -- -- 75
2019-05-23 05:00:00 12.9 0 Calma 6 Norte 0 -- -- 74
2019-05-23 04:00:00 13.9 4 Norte 8 Norte 0 -- -- 69
2019-05-23 03:00:00 17.8 5 Norte 10 Norte 0 -- -- 54
2019-05-23 02:00:00 15.4 8 Norte 23 Sudoeste 0 -- -- 64
2019-05-23 01:00:00 16.7 3 Este 5 Este 0 -- -- 61
2019-05-23 00:00:00 17 3 Nordeste 9 Oeste 0 -- -- 56
2019-05-22 23:00:00 19.3 3 Oeste 12 Oeste 0 -- -- 48
2019-05-22 22:00:00 20.2 5 Noroeste 12 Norte 0 -- -- 46
2019-05-22 21:00:00 25.8 4 Noroeste 12 Oeste 0 -- -- 39
2019-05-22 20:00:00 28.2 8 Oeste 18 Sudoeste 0 -- -- 34
2019-05-22 19:00:00 29.2 11 Sudoeste 21 Sudoeste 0 -- -- 30
2019-05-22 18:00:00 29.9 7 Sudoeste 19 Oeste 0 -- -- 28
2019-05-22 17:00:00 29.2 5 Sudoeste 15 Sudoeste 0 -- -- 30
2019-05-22 16:00:00 28.4 9 Sudoeste 19 Sudoeste 0 -- -- 30
2019-05-22 15:00:00 28.8 6 Sur 17 Sudoeste 0 -- -- 31
2019-05-22 14:00:00 27.5 4 Sudoeste 14 Sudoeste 0 -- -- 32
2019-05-22 13:00:00 26 4 Oeste 10 Sudeste 0 -- -- 35
2019-05-22 12:00:00 24.4 4 Este 8 Este 0 -- -- 41
2019-05-22 11:00:00 22.9 3 Noroeste 6 Norte 0 -- -- 40
2019-05-22 10:00:00 22.3 4 Sudeste 7 Sudeste 0 -- -- 41
2019-05-22 09:00:00 21.6 0 Calma 4 Oeste 0 -- -- 48
2019-05-22 08:00:00 14.7 3 Noroeste 4 Oeste 0 -- -- 68
2019-05-22 07:00:00 10.8 3 Norte 8 Oeste 0 -- -- 79
2019-05-22 06:00:00 12.5 5 Noroeste 7 Oeste 0 -- -- 71
2019-05-22 05:00:00 11.6 4 Nordeste 8 Sudeste 0 -- -- 76
2019-05-22 04:00:00 11.9 2 Nordeste 6 Noroeste 0 -- -- 77
2019-05-22 03:00:00 12.7 2 Sur 6 Nordeste 0 -- -- 75
2019-05-22 02:00:00 13.3 2 Nordeste 10 Sudeste 0 -- -- 75
2019-05-22 01:00:00 15.9 2 Nordeste 5 Norte 0 -- -- 60
2019-05-22 00:00:00 16.2 0 Calma 6 Este 0 -- -- 62